createdAt,value
2023-04-06T00:01:06.923Z,97006.91
2023-04-06T00:11:04.760Z,97005.75
2023-04-06T00:15:56.845Z,97003.94
2023-04-06T00:36:06.790Z,97005.41
2023-04-06T00:40:58.762Z,97007.06
2023-04-06T00:46:36.943Z,97003.38
2023-04-06T00:51:28.770Z,97004.22
2023-04-06T00:56:20.760Z,97006.13
2023-04-06T01:01:12.532Z,96995.31
2023-04-06T01:06:04.377Z,96992.56
2023-04-06T01:10:56.076Z,96985.44
2023-04-06T01:15:48.360Z,96979.16
2023-04-06T01:20:40.131Z,96977.69
2023-04-06T01:25:31.850Z,96978.34
2023-04-06T01:30:23.675Z,96976.78
2023-04-06T01:35:15.622Z,96978.41
2023-04-06T01:40:08.452Z,96970.81
2023-04-06T01:45:00.206Z,96973.25
2023-04-06T01:49:54.105Z,96971.47
2023-04-06T01:54:45.893Z,96965.81
2023-04-06T01:59:37.696Z,96962.94
2023-04-06T02:04:29.461Z,96967.63
2023-04-06T02:09:21.254Z,96967.13
2023-04-06T02:14:13.010Z,96972.44
2023-04-06T02:19:04.731Z,96966.97
2023-04-06T02:23:56.717Z,96964.19
2023-04-06T02:28:48.439Z,96972.25
2023-04-06T02:33:40.213Z,96964.88
2023-04-06T02:38:31.939Z,96963.56
2023-04-06T02:43:23.801Z,96964.19
2023-04-06T02:48:15.668Z,96966.59
2023-04-06T02:53:07.407Z,96959.66
2023-04-06T02:57:59.160Z,96957.09
2023-04-06T03:02:51.083Z,96957.41
2023-04-06T03:07:42.866Z,96968.88
2023-04-06T03:12:34.739Z,96957.41
2023-04-06T03:17:26.446Z,96961.25
2023-04-06T03:22:18.162Z,96966.72
2023-04-06T03:27:10.392Z,96955.44
2023-04-06T03:32:02.096Z,96960.59
2023-04-06T03:37:03.178Z,96955.72
2023-04-06T03:42:01.104Z,96954.72
2023-04-06T03:46:53.102Z,96963.63
2023-04-06T03:51:44.982Z,96971.50
2023-04-06T03:56:36.715Z,96961.66
2023-04-06T04:01:29.041Z,96965.69
2023-04-06T04:06:20.853Z,96968.63
2023-04-06T04:11:16.654Z,96977.13
2023-04-06T04:16:08.402Z,96985.63
2023-04-06T04:21:00.182Z,96980.81
2023-04-06T04:25:52.350Z,96976.63
2023-04-06T04:30:44.096Z,96977.44
2023-04-06T04:35:38.848Z,96989.81
2023-04-06T04:40:30.797Z,96990.41
2023-04-06T04:45:22.507Z,96991.22
2023-04-06T04:50:15.144Z,96983.97
2023-04-06T04:55:07.274Z,96989.00
2023-04-06T04:59:59.116Z,97001.72
2023-04-06T05:04:50.915Z,97003.19
2023-04-06T05:09:42.609Z,97008.88
2023-04-06T05:14:34.574Z,97009.53
2023-04-06T05:19:26.402Z,97001.31
2023-04-06T05:24:19.345Z,97009.22
2023-04-06T05:29:12.027Z,97008.16
2023-04-06T05:34:03.801Z,97007.78
2023-04-06T05:38:56.742Z,97002.47
2023-04-06T05:43:48.451Z,97004.06
2023-04-06T05:48:40.137Z,97018.56
2023-04-06T05:58:37.830Z,97016.72
2023-04-06T06:03:30.412Z,97018.13
2023-04-06T06:08:23.156Z,97018.38
2023-04-06T06:13:14.842Z,97024.41
2023-04-06T06:18:07.128Z,97029.63
2023-04-06T06:28:06.192Z,97026.00
2023-04-06T06:32:57.980Z,97026.34
2023-04-06T06:37:49.775Z,97031.72
2023-04-06T06:42:41.467Z,97033.34
2023-04-06T06:47:33.350Z,97035.88
2023-04-06T06:52:25.203Z,97048.38
2023-04-06T06:57:17.114Z,97049.81
2023-04-06T07:02:08.815Z,97050.38
2023-04-06T07:07:00.611Z,97051.06
2023-04-06T07:16:58.188Z,97059.28
2023-04-06T07:27:13.324Z,97056.06
2023-04-06T07:37:59.040Z,97051.09
2023-04-06T07:53:08.619Z,97043.16
2023-04-06T08:18:25.730Z,97039.28
2023-04-06T08:23:18.022Z,97043.69
2023-04-06T08:28:15.741Z,97038.47
2023-04-06T08:33:07.556Z,97043.69
2023-04-06T08:37:59.350Z,97039.22
2023-04-06T08:42:56.266Z,97028.09
2023-04-06T08:58:09.722Z,97027.41
2023-04-06T09:08:13.144Z,97022.44
2023-04-06T09:13:15.368Z,97024.75
2023-04-06T09:18:08.442Z,97016.84
2023-04-06T09:28:08.220Z,97011.41
2023-04-06T09:59:14.898Z,96991.16
2023-04-06T10:04:30.108Z,96982.66
2023-04-06T10:14:44.513Z,96980.63
2023-04-06T10:20:15.857Z,96979.72
2023-04-06T10:30:19.505Z,96979.84
2023-04-06T10:35:18.564Z,96966.72
2023-04-06T11:11:55.275Z,96955.38
2023-04-06T11:54:57.330Z,96915.25
2023-04-06T11:59:50.852Z,96906.88
2023-04-06T12:40:46.065Z,96884.59
2023-04-06T13:01:10.826Z,96869.66
2023-04-06T14:02:29.617Z,96850.81
2023-04-06T14:07:24.485Z,96853.47
2023-04-06T14:12:24.076Z,96843.09
2023-04-06T14:17:15.742Z,96847.75
2023-04-06T14:22:07.818Z,96841.13
2023-04-06T14:32:07.577Z,96835.31
2023-04-06T14:36:59.804Z,96834.84
2023-04-06T14:46:57.943Z,96836.13
2023-04-06T14:51:57.902Z,96830.25
2023-04-06T14:56:54.762Z,96830.84
2023-04-06T15:01:48.672Z,96829.88
2023-04-06T15:06:41.157Z,96824.06
2023-04-06T15:11:32.938Z,96818.50
2023-04-06T15:16:24.674Z,96819.09
2023-04-06T15:21:16.368Z,96820.81
2023-04-06T15:26:08.118Z,96822.88
2023-04-06T15:30:59.890Z,96809.94
2023-04-06T15:40:58.440Z,96818.28
2023-04-06T15:45:50.176Z,96826.41
2023-04-06T15:55:47.556Z,96813.81
2023-04-06T16:00:39.304Z,96820.53
2023-04-06T16:05:34.448Z,96809.50
2023-04-06T16:10:31.735Z,96811.25
2023-04-06T16:15:23.407Z,96810.88
2023-04-06T16:20:15.900Z,96820.63
2023-04-06T16:30:14.779Z,96819.88
2023-04-06T16:40:13.992Z,96818.63
2023-04-06T16:45:06.694Z,96824.09
2023-04-06T16:50:05.370Z,96826.22
2023-04-06T17:00:09.913Z,96817.97
2023-04-06T17:05:03.503Z,96824.88
2023-04-06T17:09:55.214Z,96832.44
2023-04-06T17:14:46.891Z,96834.88
2023-04-06T17:19:38.580Z,96837.19
2023-04-06T17:24:30.234Z,96838.22
2023-04-06T17:29:21.920Z,96839.84
2023-04-06T17:34:13.620Z,96841.09
2023-04-06T17:39:05.552Z,96837.66
2023-04-06T17:43:57.222Z,96847.94
2023-04-06T17:48:49.242Z,96839.41
2023-04-06T17:53:41.937Z,96837.16
2023-04-06T17:58:33.782Z,96854.34
2023-04-06T18:03:25.634Z,96855.72
2023-04-06T18:08:17.403Z,96860.56
2023-04-06T18:13:09.466Z,96867.84
2023-04-06T18:18:01.258Z,96874.75
2023-04-06T18:22:53.199Z,96880.09
2023-04-06T18:27:44.959Z,96881.22
2023-04-06T18:32:36.757Z,96884.84
2023-04-06T18:37:28.486Z,96891.34
2023-04-06T18:42:20.624Z,96901.91
2023-04-06T18:47:12.679Z,96902.00
2023-04-06T18:52:07.733Z,96905.91
2023-04-06T18:57:00.171Z,96910.72
2023-04-06T19:01:58.071Z,96906.59
2023-04-06T19:17:30.259Z,96925.09
2023-04-06T19:22:29.611Z,96927.94
2023-04-06T19:27:24.871Z,96931.69
2023-04-06T19:32:19.682Z,96927.91
2023-04-06T19:42:21.519Z,96941.00
2023-04-06T20:13:37.590Z,96970.03
2023-04-06T20:18:31.026Z,96975.91
2023-04-06T20:23:23.671Z,96978.25
2023-04-06T20:28:16.851Z,96963.34
2023-04-06T20:33:09.200Z,96971.47
2023-04-06T20:38:01.664Z,96966.03
2023-04-06T20:42:57.372Z,96965.50
2023-04-06T20:47:54.737Z,96963.06
2023-04-06T20:52:51.035Z,96976.00
2023-04-06T20:57:43.651Z,96974.41
2023-04-06T21:02:37.141Z,96980.63
2023-04-06T21:07:30.580Z,96967.28
2023-04-06T21:12:22.473Z,96972.03
2023-04-06T21:17:14.130Z,96962.84
2023-04-06T21:22:05.811Z,96979.38
2023-04-06T21:26:57.467Z,96978.63
2023-04-06T21:31:49.210Z,96977.69
2023-04-06T21:36:41.934Z,96969.22
2023-04-06T21:41:34.235Z,96976.94
2023-04-06T21:46:26.498Z,96979.56
2023-04-06T21:51:20.078Z,96976.09
2023-04-06T21:56:13.232Z,96976.91
2023-04-06T22:01:12.110Z,96976.53
2023-04-06T22:06:06.549Z,96973.94
2023-04-06T22:11:00.993Z,96963.69
2023-04-06T22:15:54.633Z,96960.06
2023-04-06T22:20:47.498Z,96953.47
2023-04-06T22:25:47.315Z,96955.69
2023-04-06T22:30:39.830Z,96944.41
2023-04-06T22:35:35.061Z,96941.22
2023-04-06T22:40:30.457Z,96928.38
2023-04-06T22:45:32.494Z,96923.53
2023-04-06T22:50:32.305Z,96914.53
2023-04-06T22:55:25.959Z,96910.09
2023-04-06T23:00:19.767Z,96911.94
2023-04-06T23:05:11.522Z,96899.66
2023-04-06T23:10:03.566Z,96897.88
2023-04-06T23:14:55.361Z,96895.03
2023-04-06T23:19:48.208Z,96886.41
2023-04-06T23:24:39.872Z,96880.41
2023-04-06T23:29:31.967Z,96878.19
2023-04-06T23:34:23.633Z,96883.22
2023-04-06T23:39:15.604Z,96870.94
2023-04-06T23:44:07.290Z,96868.38
2023-04-06T23:48:58.957Z,96853.69
2023-04-06T23:53:50.702Z,96854.09
2023-04-06T23:58:42.371Z,96851.31
